Time;durP1;ratioP1;P1;durP2;ratioP2;P2;SDS_P1;SDS_P2;PMS_P1;PMS_P2;Temp;Humidity;BMP_temperature;BMP_pressure;BME280_temperature;BME280_humidity;BME280_pressure;Samples;Min_cycle;Max_cycle;Signal;HPM_P1;HPM_P2
2023/07/21 00:00:23;;;;;;;9.23;4.75;;;;;;;;;;5071837;28;20088;-75
2023/07/21 00:02:49;;;;;;;9.48;5.13;;;;;;;;;;5067991;28;20044;-75
2023/07/21 00:05:16;;;;;;;9.25;4.47;;;;;;;;;;5071216;28;20112;-75
2023/07/21 00:07:42;;;;;;;6.60;4.45;;;17.00;99.90;;;;;;5070966;28;20121;-74
2023/07/21 00:10:09;;;;;;;7.72;5.28;;;;;;;;;;5087739;28;20036;-74
2023/07/21 00:12:35;;;;;;;13.40;5.88;;;;;;;;;;5070549;28;20041;-74
2023/07/21 00:15:02;;;;;;;10.48;6.40;;;;;;;;;;5070539;28;20037;-74
2023/07/21 00:17:30;;;;;;;11.98;6.43;;;;;;;;;;5053823;28;20099;-74
2023/07/21 00:20:06;;;;;;;10.35;6.40;;;;;;;;;;5070694;28;20044;-74
2023/07/21 00:22:32;;;;;;;10.70;6.70;;;;;;;;;;5070570;28;20406;-74
2023/07/21 00:25:00;;;;;;;11.70;6.60;;;;;;;;;;5072458;28;20041;-74
2023/07/21 00:27:27;;;;;;;10.38;6.38;;;;;;;;;;5074276;28;20123;-75
2023/07/21 00:29:53;;;;;;;10.65;6.57;;;;;;;;;;5074498;28;20048;-75
2023/07/21 00:32:19;;;;;;;11.35;6.25;;;;;;;;;;5058031;28;20128;-75
2023/07/21 00:34:46;;;;;;;12.63;6.05;;;;;;;;;;5075133;28;20040;-74
2023/07/21 00:37:14;;;;;;;12.23;7.35;;;;;;;;;;5058625;28;20048;-74
2023/07/21 00:39:40;;;;;;;12.60;6.45;;;;;;;;;;5075090;28;20074;-74
2023/07/21 00:42:07;;;;;;;9.20;5.68;;;;;;;;;;5074860;28;20101;-75
2023/07/21 00:44:36;;;;;;;10.85;5.88;;;;;;;;;;5075121;28;20517;-74
2023/07/21 00:47:02;;;;;;;15.30;6.38;;;;;;;;;;5075376;28;20399;-74
2023/07/21 00:49:28;;;;;;;10.88;5.68;;;;;;;;;;5057468;28;20116;-74
2023/07/21 00:51:54;;;;;;;12.45;6.20;;;;;;;;;;5074155;28;20028;-74
2023/07/21 00:54:21;;;;;;;12.60;6.43;;;;;;;;;;5074445;28;20048;-75
2023/07/21 00:56:47;;;;;;;14.15;6.28;;;;;;;;;;5072527;28;20064;-74
2023/07/21 00:59:14;;;;;;;14.45;6.30;;;;;;;;;;5073782;28;20123;-74
2023/07/21 01:01:40;;;;;;;11.95;6.40;;;;;;;;;;5073773;28;20040;-75
2023/07/21 01:04:07;;;;;;;10.68;6.20;;;;;;;;;;5074400;28;20174;-75
2023/07/21 01:06:36;;;;;;;15.65;7.07;;;16.10;99.90;;;;;;5074046;28;20332;-75
2023/07/21 01:09:04;;;;;;;12.60;6.55;;;;;;;;;;5073462;28;20060;-75
2023/07/21 01:11:31;;;;;;;14.10;6.70;;;16.00;99.90;;;;;;5073503;28;20497;-75
2023/07/21 01:14:02;;;;;;;13.77;6.88;;;16.00;99.90;;;;;;5073578;28;20040;-74
2023/07/21 01:16:29;;;;;;;11.73;6.78;;;;;;;;;;5073330;28;20032;-74
2023/07/21 01:18:55;;;;;;;12.35;6.50;;;;;;;;;;5073394;28;20473;-74
2023/07/21 01:21:35;;;;;;;12.10;6.63;;;16.00;99.90;;;;;;5073488;28;20048;-74
2023/07/21 01:24:06;;;;;;;17.30;7.22;;;;;;;;;;5071479;28;20064;-75
2023/07/21 01:26:35;;;;;;;11.52;7.03;;;;;;;;;;5073573;28;20040;-75
2023/07/21 01:29:01;;;;;;;13.48;6.97;;;;;;;;;;5073464;28;20044;-74
2023/07/21 01:31:28;;;;;;;14.13;6.82;;;;;;;;;;5040186;28;20036;-74
2023/07/21 01:33:55;;;;;;;16.77;7.13;;;;;;;;;;5073140;28;20421;-74
2023/07/21 01:36:22;;;;;;;9.80;6.50;;;;;;;;;;5073253;28;20215;-74
2023/07/21 01:38:48;;;;;;;15.27;6.60;;;15.90;99.90;;;;;;5072818;28;20036;-74
2023/07/21 01:41:15;;;;;;;18.73;7.18;;;15.40;99.90;;;;;;5090074;28;20044;-74
2023/07/21 01:43:41;;;;;;;13.07;6.72;;;;;;;;;;5089792;28;20561;-74
2023/07/21 01:46:10;;;;;;;12.25;6.50;;;15.80;99.90;;;;;;5062214;28;20044;-74
2023/07/21 01:48:36;;;;;;;12.88;6.65;;;;;;;;;;5073374;28;20067;-75
2023/07/21 01:51:05;;;;;;;12.88;6.43;;;15.60;99.90;;;;;;5072990;28;20040;-74
2023/07/21 01:53:35;;;;;;;12.07;6.72;;;15.40;99.90;;;;;;5072824;28;20102;-74
2023/07/21 01:56:12;;;;;;;13.38;6.72;;;15.70;99.90;;;;;;5072860;28;20068;-74
2023/07/21 01:58:38;;;;;;;11.55;7.38;;;;;;;;;;5072497;28;20120;-74
2023/07/21 02:01:06;;;;;;;18.48;6.90;;;;;;;;;;5072868;28;20055;-75
2023/07/21 02:03:33;;;;;;;15.85;7.32;;;15.60;99.90;;;;;;5072734;28;20041;-74
2023/07/21 02:05:59;;;;;;;17.00;7.07;;;;;;;;;;5055727;28;20040;-74
2023/07/21 02:08:25;;;;;;;16.05;7.10;;;;;;;;;;5072575;28;20143;-74
2023/07/21 02:10:53;;;;;;;12.68;7.22;;;;;;;;;;5072605;28;20040;-74
2023/07/21 02:13:19;;;;;;;15.15;7.15;;;;;;;;;;5055275;28;20032;-74
2023/07/21 02:15:47;;;;;;;15.10;8.05;;;;;;;;;;5072254;28;20580;-75
2023/07/21 02:18:13;;;;;;;11.90;7.18;;;;;;;;;;5072557;28;20087;-75
2023/07/21 02:20:40;;;;;;;17.40;7.65;;;;;;;;;;5072515;28;20136;-74
2023/07/21 02:23:06;;;;;;;12.73;7.63;;;;;;;;;;5072348;28;20068;-75
2023/07/21 02:25:32;;;;;;;14.27;7.05;;;;;;;;;;5072083;28;20051;-72
2023/07/21 02:27:58;;;;;;;14.45;7.90;;;;;;;;;;5072091;28;20555;-72
2023/07/21 02:30:24;;;;;;;12.77;7.65;;;;;;;;;;5072009;28;20123;-72
2023/07/21 02:32:50;;;;;;;14.65;8.02;;;;;;;;;;5055260;28;20048;-72
2023/07/21 02:35:16;;;;;;;15.43;6.95;;;;;;;;;;5071779;28;20044;-72
2023/07/21 02:37:42;;;;;;;14.32;7.40;;;;;;;;;;5073235;28;20105;-72
2023/07/21 02:40:09;;;;;;;15.60;8.40;;;16.30;99.90;;;;;;5071966;28;20040;-72
2023/07/21 02:42:35;;;;;;;13.05;7.35;;;;;;;;;;5055501;28;20064;-72
2023/07/21 02:45:01;;;;;;;14.75;7.18;;;;;;;;;;5071271;28;20040;-72
2023/07/21 02:47:27;;;;;;;13.63;6.68;;;;;;;;;;5071023;28;20081;-72
2023/07/21 02:49:53;;;;;;;18.98;7.63;;;;;;;;;;5069816;28;20527;-73
2023/07/21 02:52:20;;;;;;;23.05;7.85;;;;;;;;;;5072606;28;20044;-72
2023/07/21 02:54:47;;;;;;;21.58;6.90;;;;;;;;;;5072358;28;20454;-72
2023/07/21 02:57:13;;;;;;;13.10;6.03;;;;;;;;;;5068999;28;20502;-72
2023/07/21 02:59:39;;;;;;;10.23;5.93;;;;;;;;;;5071473;28;20174;-72
2023/07/21 03:02:05;;;;;;;12.85;6.65;;;;;;;;;;5071598;28;20452;-72
2023/07/21 03:04:32;;;;;;;17.45;6.82;;;;;;;;;;5071666;28;20390;-72
2023/07/21 03:06:58;;;;;;;12.25;6.55;;;;;;;;;;5070978;28;20044;-72
2023/07/21 03:09:24;;;;;;;13.25;7.32;;;;;;;;;;5071388;28;20531;-72
2023/07/21 03:11:50;;;;;;;15.07;6.38;;;;;;;;;;5054893;28;20037;-72
2023/07/21 03:14:16;;;;;;;16.20;6.82;;;;;;;;;;5073693;28;20090;-72
2023/07/21 03:16:42;;;;;;;10.60;6.18;;;;;;;;;;5071404;28;20064;-72
2023/07/21 03:19:08;;;;;;;15.30;6.38;;;;;;;;;;5054500;28;20068;-72
2023/07/21 03:21:34;;;;;;;10.82;6.40;;;;;;;;;;5071143;28;20559;-74
2023/07/21 03:24:01;;;;;;;16.95;6.57;;;;;;;;;;5070583;28;20062;-75
2023/07/21 03:26:27;;;;;;;16.90;6.38;;;;;;;;;;5053884;28;20072;-72
2023/07/21 03:28:54;;;;;;;11.68;6.22;;;;;;;;;;5069978;28;20052;-72
2023/07/21 03:31:20;;;;;;;12.05;6.45;;;;;;;;;;5053562;28;20062;-72
2023/07/21 03:33:47;;;;;;;14.57;6.80;;;;;;;;;;5069864;28;20072;-75
2023/07/21 03:36:14;;;;;;;12.15;6.75;;;;;;;;;;5053578;28;20109;-75
2023/07/21 03:38:41;;;;;;;14.38;6.82;;;;;;;;;;5069854;28;20032;-75
2023/07/21 03:41:09;;;;;;;13.13;6.55;;;;;;;;;;5085774;28;20516;-75
2023/07/21 03:43:37;;;;;;;12.90;6.82;;;;;;;;;;5070003;28;20084;-75
2023/07/21 03:46:04;;;;;;;13.80;6.25;;;;;;;;;;5087666;28;20075;-72
2023/07/21 03:48:30;;;;;;;15.13;7.10;;;;;;;;;;5053545;28;20126;-75
2023/07/21 03:50:57;;;;;;;14.95;7.68;;;14.70;99.90;;;;;;5070614;28;20182;-75
2023/07/21 03:53:24;;;;;;;12.00;6.90;;;14.80;99.90;;;;;;5070621;28;20078;-75
2023/07/21 03:55:50;;;;;;;14.52;8.57;;;;;;;;;;5070892;28;20078;-75
2023/07/21 03:58:16;;;;;;;17.73;7.68;;;;;;;;;;5070597;28;20039;-72
2023/07/21 04:00:43;;;;;;;14.48;7.47;;;;;;;;;;5070050;28;20040;-72
2023/07/21 04:03:09;;;;;;;13.75;8.48;;;;;;;;;;5070813;28;20467;-72
2023/07/21 04:05:35;;;;;;;18.58;8.30;;;;;;;;;;5070190;28;20044;-72
2023/07/21 04:08:01;;;;;;;16.10;7.78;;;;;;;;;;5070773;28;20478;-72
2023/07/21 04:10:27;;;;;;;15.52;7.68;;;;;;;;;;5070229;28;20076;-75
2023/07/21 04:12:54;;;;;;;16.48;7.93;;;;;;;;;;5070859;28;20123;-75
2023/07/21 04:15:20;;;;;;;16.00;8.55;;;;;;;;;;5071025;28;20045;-75
2023/07/21 04:17:46;;;;;;;17.20;7.80;;;;;;;;;;5070310;28;20037;-75
2023/07/21 04:20:13;;;;;;;16.17;8.27;;;;;;;;;;5070407;28;20490;-75
2023/07/21 04:22:39;;;;;;;14.77;8.63;;;;;;;;;;5070101;28;20127;-75
2023/07/21 04:25:05;;;;;;;15.88;8.40;;;14.60;99.90;;;;;;5053751;28;20085;-75
2023/07/21 04:27:32;;;;;;;15.50;8.27;;;;;;;;;;5087190;28;20044;-75
2023/07/21 04:29:58;;;;;;;17.85;8.68;;;;;;;;;;5070190;28;20069;-75
2023/07/21 04:32:25;;;;;;;19.40;8.25;;;;;;;;;;5053568;28;20044;-72
2023/07/21 04:34:51;;;;;;;16.25;8.30;;;;;;;;;;5067657;28;20028;-72
2023/07/21 04:37:17;;;;;;;19.92;8.32;;;;;;;;;;5070474;28;20033;-72
2023/07/21 04:39:43;;;;;;;14.35;7.47;;;;;;;;;;5053779;28;20186;-72
2023/07/21 04:42:09;;;;;;;15.52;7.60;;;;;;;;;;5070036;28;20052;-72
2023/07/21 04:44:35;;;;;;;18.17;8.60;;;;;;;;;;5070325;28;20051;-72
2023/07/21 04:47:05;;;;;;;16.55;8.00;;;;;;;;;;5070322;28;20094;-72
2023/07/21 04:49:31;;;;;;;15.27;8.30;;;;;;;;;;5053987;28;20090;-75
2023/07/21 04:52:00;;;;;;;25.38;8.25;;;;;;;;;;5070487;28;20040;-75
2023/07/21 04:54:26;;;;;;;19.40;8.80;;;;;;;;;;5053471;28;20044;-75
2023/07/21 04:56:53;;;;;;;17.70;8.05;;;;;;;;;;5069996;28;20032;-75
2023/07/21 04:59:19;;;;;;;21.00;8.45;;;;;;;;;;5070074;28;20036;-75
2023/07/21 05:01:47;;;;;;;15.00;7.90;;;;;;;;;;5053246;28;20041;-75
2023/07/21 05:04:14;;;;;;;26.88;9.25;;;;;;;;;;5070013;28;20402;-75
2023/07/21 05:06:44;;;;;;;13.73;7.18;;;;;;;;;;5070321;28;20121;-75
2023/07/21 05:09:10;;;;;;;21.20;8.27;;;;;;;;;;5069725;28;20033;-75
2023/07/21 05:11:36;;;;;;;15.65;8.38;;;;;;;;;;5055888;28;21339;-75
2023/07/21 05:14:05;;;;;;;15.80;7.75;;;;;;;;;;5057515;28;20036;-75
2023/07/21 05:16:32;;;;;;;15.65;8.50;;;;;;;;;;5057493;28;20033;-75
2023/07/21 05:18:58;;;;;;;20.77;8.60;;;;;;;;;;5073127;28;20043;-75
2023/07/21 05:21:24;;;;;;;18.92;8.63;;;;;;;;;;5073851;28;20040;-75
2023/07/21 05:23:50;;;;;;;18.35;9.05;;;;;;;;;;5073248;28;20076;-75
2023/07/21 05:26:17;;;;;;;18.00;8.40;;;;;;;;;;5073408;28;20517;-74
2023/07/21 05:28:43;;;;;;;30.60;9.20;;;;;;;;;;5073273;28;20044;-75
2023/07/21 05:31:12;;;;;;;18.92;8.52;;;15.30;99.90;;;;;;5073301;28;20028;-74
2023/07/21 05:33:38;;;;;;;22.40;10.18;;;;;;;;;;5089934;28;20036;-74
2023/07/21 05:36:09;;;;;;;17.38;8.05;;;;;;;;;;5073353;28;20032;-75
2023/07/21 05:38:35;;;;;;;15.40;7.53;;;;;;;;;;5073186;28;20045;-75
2023/07/21 05:41:02;;;;;;;18.90;7.53;;;;;;;;;;5072865;28;20474;-74
2023/07/21 05:43:28;;;;;;;19.50;8.00;;;;;;;;;;5073124;28;20098;-75
2023/07/21 05:45:54;;;;;;;19.35;8.20;;;;;;;;;;5073086;28;20441;-74
2023/07/21 05:48:21;;;;;;;22.90;9.25;;;;;;;;;;5073330;28;20037;-71
2023/07/21 05:50:47;;;;;;;31.17;8.65;;;;;;;;;;5072894;28;20044;-71
2023/07/21 05:53:14;;;;;;;16.45;8.07;;;;;;;;;;5070667;28;20074;-71
2023/07/21 05:55:43;;;;;;;17.48;8.45;;;16.70;99.90;;;;;;5073172;28;20051;-71
2023/07/21 05:58:09;;;;;;;17.05;8.05;;;;;;;;;;5090038;28;20033;-71
2023/07/21 06:00:39;;;;;;;13.32;7.22;;;15.80;99.90;;;;;;5072977;28;20463;-71
2023/07/21 06:03:07;;;;;;;13.85;7.05;;;16.00;99.90;;;;;;5089626;28;20041;-71
2023/07/21 06:05:36;;;;;;;17.75;8.07;;;;;;;;;;5089562;28;20194;-71
2023/07/21 06:08:06;;;;;;;19.05;8.65;;;16.40;99.90;;;;;;5072659;28;20048;-71
2023/07/21 06:10:33;;;;;;;23.15;8.98;;;;;;;;;;5072984;28;20078;-72
2023/07/21 06:12:59;;;;;;;19.02;8.70;;;;;;;;;;5072729;28;20386;-71
2023/07/21 06:15:25;;;;;;;18.35;8.18;;;;;;;;;;5072756;28;20339;-71
2023/07/21 06:17:52;;;;;;;20.35;8.45;;;16.60;99.90;;;;;;5072874;28;20076;-71
2023/07/21 06:20:20;;;;;;;20.40;8.70;;;;;;;;;;5072129;28;20473;-71
2023/07/21 06:22:47;;;;;;;17.38;8.05;;;;;;;;;;5054223;28;20075;-71
2023/07/21 06:25:14;;;;;;;21.88;9.60;;;;;;;;;;5070220;28;20389;-71
2023/07/21 06:27:40;;;;;;;23.13;8.77;;;;;;;;;;5054981;28;20037;-72
2023/07/21 06:30:06;;;;;;;15.77;8.60;;;;;;;;;;5071874;28;20059;-72
2023/07/21 06:32:32;;;;;;;18.17;8.32;;;;;;;;;;5072268;28;20031;-71
2023/07/21 06:34:59;;;;;;;18.98;8.70;;;;;;;;;;5053493;28;20086;-72
2023/07/21 06:37:25;;;;;;;16.83;8.43;;;;;;;;;;5071153;28;20044;-71
2023/07/21 06:39:52;;;;;;;20.20;8.50;;;;;;;;;;5072860;28;20374;-72
2023/07/21 06:42:18;;;;;;;58.53;10.20;;;;;;;;;;5072099;28;20239;-72
2023/07/21 06:44:44;;;;;;;32.90;8.27;;;;;;;;;;5073213;28;20044;-72
2023/07/21 06:47:11;;;;;;;18.25;7.88;;;;;;;;;;5072923;28;20098;-72
2023/07/21 06:49:38;;;;;;;16.20;8.48;;;;;;;;;;5072847;28;20526;-72
2023/07/21 06:52:05;;;;;;;17.63;7.55;;;;;;;;;;5062459;28;20052;-77
2023/07/21 06:54:31;;;;;;;11.73;4.93;;;;;;;;;;5071978;28;20040;-71
2023/07/21 06:56:58;;;;;;;10.35;4.93;;;;;;;;;;5072273;28;20123;-72
2023/07/21 06:59:25;;;;;;;9.02;4.60;;;17.20;99.90;;;;;;5088304;28;20052;-71
2023/07/21 07:01:51;;;;;;;11.27;5.15;;;;;;;;;;5056149;28;20083;-72
2023/07/21 07:04:17;;;;;;;8.95;5.63;;;;;;;;;;5061476;28;20045;-72
2023/07/21 07:06:43;;;;;;;13.30;6.72;;;;;;;;;;5055381;28;20511;-72
2023/07/21 07:09:10;;;;;;;12.68;6.47;;;;;;;;;;5072466;28;20073;-72
2023/07/21 07:11:37;;;;;;;10.00;5.70;;;;;;;;;;5072404;28;20040;-72
2023/07/21 07:14:03;;;;;;;18.13;7.75;;;;;;;;;;5072357;28;20043;-75
2023/07/21 07:16:29;;;;;;;10.18;5.93;;;;;;;;;;5076726;28;20054;-74
2023/07/21 07:18:55;;;;;;;7.90;4.63;;;;;;;;;;5096108;28;20040;-70
2023/07/21 07:21:21;;;;;;;9.07;4.53;;;;;;;;;;5086055;28;20040;-69
2023/07/21 07:23:47;;;;;;;9.00;4.35;;;;;;;;;;5056128;28;20059;-70
2023/07/21 07:26:13;;;;;;;8.80;5.43;;;;;;;;;;5096829;28;20041;-70
2023/07/21 07:28:39;;;;;;;13.13;5.85;;;;;;;;;;5060349;28;20044;-70
2023/07/21 07:31:06;;;;;;;12.93;6.25;;;;;;;;;;5083504;28;20116;-71
2023/07/21 07:33:32;;;;;;;16.10;6.93;;;;;;;;;;5068746;28;20374;-71
2023/07/21 07:36:01;;;;;;;10.20;6.47;;;;;;;;;;5076943;28;20076;-70
2023/07/21 07:38:28;;;;;;;13.77;6.28;;;17.70;99.90;;;;;;5072104;28;20079;-70
2023/07/21 07:40:55;;;;;;;13.18;6.00;;;;;;;;;;5080585;28;20040;-70
2023/07/21 07:43:21;;;;;;;15.98;6.28;;;;;;;;;;5084177;28;20139;-70
2023/07/21 07:45:47;;;;;;;13.48;8.18;;;;;;;;;;5074461;28;20454;-70
2023/07/21 07:48:15;;;;;;;9.43;4.90;;;;;;;;;;5056771;28;20168;-70
2023/07/21 07:50:42;;;;;;;10.95;5.38;;;;;;;;;;5055990;28;20417;-70
2023/07/21 07:53:08;;;;;;;16.98;4.78;;;;;;;;;;5071857;28;20036;-70
2023/07/21 07:55:42;;;;;;;11.18;5.30;;;18.20;98.40;;;;;;5071523;28;20557;-71
2023/07/21 07:58:08;;;;;;;11.13;5.07;;;18.40;98.80;;;;;;5073204;28;20051;-73
2023/07/21 08:00:36;;;;;;;6.90;4.15;;;18.40;99.50;;;;;;5067509;28;20052;-70
2023/07/21 08:03:04;;;;;;;9.93;5.28;;;18.20;99.60;;;;;;5071817;28;20048;-70
2023/07/21 08:05:30;;;;;;;31.98;7.53;;;18.20;99.90;;;;;;5071712;28;20119;-73
2023/07/21 08:07:58;;;;;;;15.00;7.90;;;;;;;;;;5089558;28;20441;-73
2023/07/21 08:10:27;;;;;;;20.20;8.45;;;18.10;99.90;;;;;;5081994;28;20397;-74
2023/07/21 08:12:54;;;;;;;22.35;8.35;;;17.80;99.90;;;;;;5071702;28;20049;-74
2023/07/21 08:15:21;;;;;;;15.18;7.20;;;;;;;;;;5071629;28;20119;-74
2023/07/21 08:17:47;;;;;;;14.85;5.57;;;;;;;;;;5071381;28;20044;-69
2023/07/21 08:20:13;;;;;;;15.85;6.47;;;;;;;;;;5071686;28;20071;-74
2023/07/21 08:22:39;;;;;;;12.55;6.95;;;;;;;;;;5054856;28;20091;-74
2023/07/21 08:25:05;;;;;;;16.75;7.57;;;;;;;;;;5071658;28;20035;-74
2023/07/21 08:27:35;;;;;;;16.90;7.43;;;;;;;;;;5054807;28;20043;-74
2023/07/21 08:30:02;;;;;;;14.23;7.05;;;;;;;;;;5058541;28;20033;-74
2023/07/21 08:32:28;;;;;;;14.20;6.38;;;;;;;;;;5071605;28;20052;-75
2023/07/21 08:34:55;;;;;;;14.80;8.45;;;;;;;;;;5071468;28;20039;-75
2023/07/21 08:37:22;;;;;;;24.38;9.18;;;;;;;;;;5071581;28;20041;-75
2023/07/21 08:39:48;;;;;;;17.45;9.18;;;;;;;;;;5076655;28;20079;-75
2023/07/21 08:42:14;;;;;;;24.80;12.27;;;;;;;;;;5078401;28;20040;-75
2023/07/21 08:44:40;;;;;;;31.85;15.32;;;;;;;;;;5079458;28;20048;-75
2023/07/21 08:47:07;;;;;;;34.53;14.63;;;;;;;;;;5086122;28;20040;-75
2023/07/21 08:49:33;;;;;;;24.52;12.77;;;17.60;99.90;;;;;;5066348;28;20181;-75
2023/07/21 08:51:59;;;;;;;19.85;10.75;;;;;;;;;;5084567;28;20056;-75
2023/07/21 08:54:26;;;;;;;26.50;13.02;;;;;;;;;;5091280;28;20066;-74
2023/07/21 08:56:52;;;;;;;26.45;13.05;;;;;;;;;;5085207;28;20499;-74
2023/07/21 08:59:19;;;;;;;27.50;12.70;;;;;;;;;;5076583;28;20044;-74
2023/07/21 09:01:45;;;;;;;28.58;12.98;;;;;;;;;;5086025;28;20039;-73
2023/07/21 09:04:21;;;;;;;26.75;12.63;;;17.90;99.90;;;;;;5076097;28;20062;-74
2023/07/21 09:06:51;;;;;;;26.50;12.63;;;18.00;99.90;;;;;;5061617;28;20044;-74
2023/07/21 09:09:21;;;;;;;25.33;11.63;;;17.90;99.90;;;;;;5076854;28;20076;-74
2023/07/21 09:11:48;;;;;;;29.17;11.77;;;17.80;99.90;;;;;;5081243;28;20115;-73
2023/07/21 09:14:14;;;;;;;23.48;10.63;;;16.90;99.90;;;;;;5075669;28;20184;-73
2023/07/21 09:16:41;;;;;;;28.95;11.02;;;;;;;;;;5092637;28;20035;-74
2023/07/21 09:19:07;;;;;;;19.02;9.13;;;;;;;;;;5057207;28;20503;-74
2023/07/21 09:21:35;;;;;;;16.08;8.27;;;;;;;;;;5076406;28;20447;-74
2023/07/21 09:24:05;;;;;;;16.60;8.57;;;18.50;99.90;;;;;;5090386;28;20041;-74
2023/07/21 09:26:32;;;;;;;20.08;9.25;;;17.70;99.90;;;;;;5090240;28;20386;-75
2023/07/21 09:28:58;;;;;;;21.30;8.60;;;;;;;;;;5093365;28;20068;-75
2023/07/21 09:31:33;;;;;;;19.52;9.00;;;18.90;99.90;;;;;;5061346;28;20565;-75
2023/07/21 09:34:12;;;;;;;16.05;8.40;;;18.10;99.90;;;;;;5089110;28;20078;-75
2023/07/21 09:36:44;;;;;;;25.80;8.68;;;18.30;99.90;;;;;;5076958;28;20065;-75
2023/07/21 09:39:14;;;;;;;17.95;7.93;;;18.10;99.90;;;;;;5066677;28;20051;-75
2023/07/21 09:41:41;;;;;;;15.38;8.20;;;18.30;99.90;;;;;;5089998;28;20041;-75
2023/07/21 09:44:07;;;;;;;18.27;8.98;;;;;;;;;;5074696;28;20052;-75
2023/07/21 09:46:33;;;;;;;20.85;8.05;;;18.80;99.90;;;;;;5055986;28;20049;-75
2023/07/21 09:48:59;;;;;;;16.15;8.65;;;18.50;99.90;;;;;;5089113;28;20041;-74
2023/07/21 09:51:28;;;;;;;20.83;9.20;;;18.10;99.90;;;;;;5091246;28;20047;-75
2023/07/21 09:53:57;;;;;;;19.50;9.38;;;18.80;99.90;;;;;;5065203;28;20047;-75
2023/07/21 09:56:25;;;;;;;17.58;9.10;;;19.20;99.90;;;;;;5093469;28;20039;-75
2023/07/21 09:59:00;;;;;;;21.00;9.77;;;19.30;99.90;;;;;;5078646;28;20084;-75
2023/07/21 10:01:26;;;;;;;19.48;9.38;;;;;;;;;;5057083;28;20440;-76
2023/07/21 10:03:53;;;;;;;22.25;9.50;;;;;;;;;;5057238;28;20071;-72
2023/07/21 10:06:19;;;;;;;38.83;10.57;;;19.70;99.90;;;;;;5073666;28;20076;-71
2023/07/21 10:08:46;;;;;;;14.07;7.88;;;;;;;;;;5056721;28;20080;-71
2023/07/21 10:11:15;;;;;;;14.07;6.97;;;19.60;98.70;;;;;;5073514;28;20041;-71
2023/07/21 10:13:46;;;;;;;15.15;6.70;;;20.40;99.90;;;;;;5073345;28;20081;-71
2023/07/21 10:16:13;;;;;;;16.40;6.50;;;;;;;;;;5072253;28;20044;-71
2023/07/21 10:19:04;;;;;;;15.60;6.00;;;19.90;97.40;;;;;;5073613;28;20116;-71
2023/07/21 10:21:31;;;;;;;16.75;5.95;;;20.40;99.90;;;;;;5073721;28;20455;-71
2023/07/21 10:24:01;;;;;;;9.48;4.68;;;19.00;99.20;;;;;;5073578;28;20041;-71
2023/07/21 10:26:29;;;;;;;13.10;5.80;;;20.50;99.90;;;;;;5053619;28;20059;-71
2023/07/21 10:28:55;;;;;;;13.95;5.75;;;;;;;;;;5055994;28;20048;-71
2023/07/21 10:31:24;;;;;;;13.15;5.72;;;19.90;96.00;;;;;;5071153;28;20135;-71
2023/07/21 10:34:14;;;;;;;17.58;6.05;;;19.60;99.90;;;;;;5074166;28;20169;-71
2023/07/21 10:36:51;;;;;;;13.05;7.03;;;18.90;97.40;;;;;;5078861;28;20075;-71
2023/07/21 10:39:19;;;;;;;13.65;6.82;;;19.40;96.90;;;;;;5069018;28;20044;-71
2023/07/21 10:41:47;;;;;;;15.27;6.57;;;19.50;97.10;;;;;;5056468;28;20052;-71
2023/07/21 10:44:14;;;;;;;19.63;7.68;;;19.30;97.10;;;;;;5073109;28;20045;-72
2023/07/21 10:46:42;;;;;;;17.95;8.48;;;19.60;99.90;;;;;;5073336;28;20090;-71
2023/07/21 10:49:09;;;;;;;18.35;8.23;;;19.20;99.90;;;;;;5056319;28;20045;-72
2023/07/21 10:51:36;;;;;;;19.00;7.93;;;20.00;97.60;;;;;;5056113;28;20047;-72
2023/07/21 10:54:03;;;;;;;27.88;7.57;;;19.30;97.10;;;;;;5072891;28;20482;-71
2023/07/21 10:56:29;;;;;;;21.95;8.52;;;;;;;;;;5089540;28;20047;-71
2023/07/21 10:58:55;;;;;;;14.00;7.43;;;18.60;99.90;;;;;;5072831;28;20044;-71
2023/07/21 11:01:22;;;;;;;23.88;8.65;;;19.40;99.90;;;;;;5089605;28;20387;-73
2023/07/21 11:03:48;;;;;;;20.27;8.57;;;20.10;99.90;;;;;;5072792;28;20113;-73
2023/07/21 11:06:14;;;;;;;20.00;9.57;;;;;;;;;;5072355;28;20036;-72
2023/07/21 11:08:40;;;;;;;25.42;10.23;;;;;;;;;;5072002;28;20040;-71
2023/07/21 11:11:07;;;;;;;19.90;9.13;;;;;;;;;;5072455;28;20123;-71
2023/07/21 11:13:33;;;;;;;19.92;9.40;;;19.50;99.90;;;;;;5071109;28;20040;-72
2023/07/21 11:16:00;;;;;;;20.10;9.27;;;19.10;98.10;;;;;;5055535;28;20037;-71
2023/07/21 11:18:28;;;;;;;26.25;9.43;;;18.40;99.90;;;;;;5086389;28;20102;-77
2023/07/21 11:20:55;;;;;;;23.65;8.40;;;;;;;;;;5055172;28;20493;-77
2023/07/21 11:23:22;;;;;;;25.58;8.68;;;18.50;98.60;;;;;;5072737;28;20068;-76
2023/07/21 11:26:07;;;;;;;23.50;8.05;;;18.90;99.90;;;;;;5055963;28;20040;-77
2023/07/21 11:28:40;;;;;;;29.55;9.20;;;18.30;99.80;;;;;;5072074;28;20052;-75
2023/07/21 11:31:16;;;;;;;26.00;8.10;;;18.30;99.90;;;;;;5072961;28;20394;-74
2023/07/21 11:33:43;;;;;;;23.83;7.80;;;18.10;99.90;;;;;;5071960;28;20040;-75
2023/07/21 11:36:22;;;;;;;24.23;8.68;;;18.30;99.90;;;;;;5072054;28;20068;-75
2023/07/21 11:39:07;;;;;;;25.15;8.73;;;17.90;99.90;;;;;;5071732;28;20489;-75
2023/07/21 11:41:36;;;;;;;36.22;9.15;;;17.90;99.90;;;;;;5052011;28;20041;-75
2023/07/21 11:44:05;;;;;;;30.92;8.57;;;18.10;99.90;;;;;;5058966;28;20525;-75
2023/07/21 11:46:31;;;;;;;31.65;8.68;;;;;;;;;;5088755;28;20051;-75
2023/07/21 11:48:58;;;;;;;35.70;9.50;;;;;;;;;;5088592;28;20070;-74
2023/07/21 11:51:24;;;;;;;36.15;10.65;;;;;;;;;;5071682;28;20036;-72
2023/07/21 11:53:50;;;;;;;38.00;11.30;;;;;;;;;;5071694;28;20032;-72
2023/07/21 11:56:16;;;;;;;38.70;10.73;;;;;;;;;;5071324;28;20041;-72
2023/07/21 11:58:42;;;;;;;29.48;9.73;;;17.60;99.90;;;;;;5071079;28;20036;-72
2023/07/21 12:01:08;;;;;;;36.53;10.25;;;16.90;99.90;;;;;;5070047;28;20040;-72
2023/07/21 12:03:38;;;;;;;33.78;11.07;;;18.60;99.90;;;;;;5070155;28;20406;-68
2023/07/21 12:06:04;;;;;;;28.58;9.55;;;;;;;;;;5071899;28;20048;-68
2023/07/21 12:08:30;;;;;;;25.52;8.25;;;;;;;;;;5071869;28;20040;-68
2023/07/21 12:10:59;;;;;;;18.30;7.88;;;16.70;99.90;;;;;;5054999;28;20076;-68
2023/07/21 12:13:25;;;;;;;25.23;7.47;;;;;;;;;;5071968;28;20040;-68
2023/07/21 12:15:52;;;;;;;21.83;7.72;;;;;;;;;;5054860;28;20119;-68
2023/07/21 12:18:19;;;;;;;22.50;7.47;;;17.70;99.90;;;;;;5071505;28;20040;-68
2023/07/21 12:20:45;;;;;;;19.58;8.48;;;;;;;;;;5055797;28;20051;-68
2023/07/21 12:23:11;;;;;;;22.10;8.93;;;;;;;;;;5075843;28;20135;-68
2023/07/21 12:25:37;;;;;;;23.05;8.73;;;;;;;;;;5077452;28;20096;-68
2023/07/21 12:28:04;;;;;;;16.65;7.18;;;16.70;99.90;;;;;;5084276;28;20091;-68
2023/07/21 12:30:30;;;;;;;11.75;6.15;;;;;;;;;;5084126;28;20075;-68
2023/07/21 12:32:56;;;;;;;15.18;5.85;;;;;;;;;;5079824;28;20042;-69
2023/07/21 12:35:22;;;;;;;13.23;5.40;;;16.60;99.90;;;;;;5089111;28;20127;-68
2023/07/21 12:37:48;;;;;;;14.55;5.20;;;;;;;;;;5083425;28;20135;-68
2023/07/21 12:40:15;;;;;;;9.55;4.78;;;;;;;;;;5082804;28;20058;-69
2023/07/21 12:42:41;;;;;;;17.83;6.35;;;17.50;99.90;;;;;;5079336;28;20044;-69
2023/07/21 12:45:08;;;;;;;11.73;4.53;;;17.10;99.90;;;;;;5089085;28;20405;-69
2023/07/21 12:47:37;;;;;;;10.00;4.88;;;18.40;99.90;;;;;;5078221;28;20052;-69
2023/07/21 12:50:04;;;;;;;12.82;4.55;;;18.40;99.90;;;;;;5094243;28;20459;-69
2023/07/21 12:52:30;;;;;;;11.27;5.55;;;;;;;;;;5079669;28;20040;-69
2023/07/21 12:54:56;;;;;;;13.23;6.28;;;;;;;;;;5082648;28;20401;-68
2023/07/21 12:57:22;;;;;;;15.00;6.50;;;;;;;;;;5086305;28;20036;-68
2023/07/21 12:59:49;;;;;;;15.02;6.93;;;;;;;;;;5076747;28;20037;-69
2023/07/21 13:02:15;;;;;;;12.23;5.43;;;;;;;;;;5070573;28;20481;-69
2023/07/21 13:04:40;;;;;;;16.67;5.95;;;16.80;99.90;;;;;;5080510;28;20040;-69
2023/07/21 13:07:10;;;;;;;9.48;4.95;;;;;;;;;;5085090;28;20062;-71
2023/07/21 13:09:36;;;;;;;9.77;5.13;;;17.80;99.90;;;;;;5085819;28;20044;-73
2023/07/21 13:12:02;;;;;;;8.98;5.15;;;18.30;99.90;;;;;;5077243;28;20081;-73
2023/07/21 13:14:28;;;;;;;13.13;5.65;;;16.50;99.90;;;;;;5086535;28;20067;-72
2023/07/21 13:16:54;;;;;;;13.82;5.72;;;;;;;;;;5081704;28;20050;-69
2023/07/21 13:19:21;;;;;;;13.60;6.10;;;;;;;;;;5080524;28;20085;-68
2023/07/21 13:21:47;;;;;;;16.05;6.68;;;;;;;;;;5085743;28;20080;-69
2023/07/21 13:24:13;;;;;;;10.13;6.30;;;;;;;;;;5079640;28;20040;-69
2023/07/21 13:26:40;;;;;;;11.00;5.60;;;;;;;;;;5079628;28;20351;-68
2023/07/21 13:29:07;;;;;;;9.57;5.47;;;;;;;;;;5087691;28;20550;-73
2023/07/21 13:31:34;;;;;;;11.20;5.90;;;;;;;;;;5081710;28;20493;-73
2023/07/21 13:34:00;;;;;;;9.98;5.65;;;;;;;;;;5086851;28;20482;-73
2023/07/21 13:36:26;;;;;;;9.60;5.57;;;;;;;;;;5084533;28;20396;-73
2023/07/21 13:38:52;;;;;;;11.80;5.55;;;;;;;;;;5083481;28;20112;-73
2023/07/21 13:41:18;;;;;;;12.32;5.90;;;;;;;;;;5085731;28;20047;-73
2023/07/21 13:43:45;;;;;;;13.38;5.72;;;;;;;;;;5065188;28;20044;-74
2023/07/21 13:46:11;;;;;;;12.55;5.78;;;;;;;;;;5067563;28;20051;-73
2023/07/21 13:48:37;;;;;;;13.00;5.65;;;;;;;;;;5076340;28;20086;-73
2023/07/21 13:51:03;;;;;;;11.40;5.80;;;;;;;;;;5057450;28;20037;-73
2023/07/21 13:53:29;;;;;;;11.55;6.32;;;;;;;;;;5074783;28;20064;-72